Fiorello Laguardia — WDF2989 — position and weather

sailwx.info

Track history (hours):
 
Tides and Currents Weather Stations Pressure Air Temp Water Temp Dewpoint Dewpoint Depression Visibility Wind Speed Wind Dir Waves Ship Positions

Fiorello Laguardia

Owner: PORT IMPERIAL FERRY, WEEHAWKEN, NJ. More information available from US FCC via Universal Licensing System and Coast Guard Vessel Documentation Center.

Last reported at 2018-Jun-18 22:18 UTC. Time now 2018-Jun-19 08:26 UTC.
Position N 40°45' W 074°01'.

Length 26 m; draft 2 m.

Type: Passenger vessel. MMSI: 367434210.

Date/timePositionNaut miles runAvg speedWind from/ knotsBaromVisibWave heightAir tempDewpointWater temp
2018-Jun-18 22:18N 40°45' W 074°01'1 4.5
2018-Jun-18 22:01N 40°44' W 074°01'1 1.7
2018-Jun-18 21:30N 40°43' W 074°01'1 0.1
2018-Jun-18 12:56N 40°44' W 074°01'0 0.0
2018-Jun-18 02:32N 40°44' W 074°01'124.4
2018-Jun-18 02:31N 40°43' W 074°01'3 5.6
2018-Jun-18 02:00N 40°40' W 074°01'2 3.2
2018-Jun-18 01:20N 40°42' W 074°00'1 3.9
2018-Jun-18 00:59N 40°41' W 074°01'2 3.2
2018-Jun-18 00:23N 40°39' W 074°02'3 7.2
2018-Jun-18 00:00N 40°42' W 074°00'3 4.8
2018-Jun-17 23:23N 40°39' W 074°02'3 7.3
2018-Jun-17 22:55N 40°42' W 074°00'0 0.6
2018-Jun-17 22:30N 40°42' W 074°00'3 4.4
2018-Jun-17 21:42N 40°39' W 074°02'211.1
2018-Jun-17 21:31N 40°41' W 074°01'1 1.1
2018-Jun-17 21:00N 40°41' W 074°01'1 1.0
2018-Jun-17 20:28N 40°41' W 074°01'0 0.2
2018-Jun-17 19:51N 40°41' W 074°01'1 2.5
2018-Jun-17 19:26N 40°42' W 074°00'1 1.1
2018-Jun-17 18:55N 40°41' W 074°01'1 1.7
2018-Jun-17 18:20N 40°40' W 074°01'2 2.9
2018-Jun-17 17:46N 40°42' W 074°00'0 0.5
2018-Jun-17 17:24N 40°42' W 074°00'1 1.5
2018-Jun-17 16:37N 40°41' W 074°01'0 3.7
2018-Jun-17 16:30N 40°41' W 074°01'1 1.0
2018-Jun-17 15:58N 40°42' W 074°01'0 0.4
2018-Jun-17 14:48N 40°41' W 074°01'1 2.4
2018-Jun-17 14:26N 40°42' W 074°00'0 0.6
2018-Jun-17 13:59N 40°42' W 074°00'3 4.2
2018-Jun-17 13:18N 40°39' W 074°02'3 9.1
2018-Jun-17 12:57N 40°42' W 073°60'1 1.0
2018-Jun-17 12:23N 40°42' W 074°00'1 0.9
2018-Jun-17 11:41N 40°41' W 074°01'1 3.6
2018-Jun-17 11:19N 40°42' W 074°00'1 1.9
2018-Jun-17 11:01N 40°42' W 074°00'2 3.5
2018-Jun-17 10:24N 40°40' W 074°01'4 0.5
2018-Jun-17 02:34N 40°44' W 074°01'125.9
2018-Jun-17 02:30N 40°42' W 074°02'2 4.6
2018-Jun-17 02:00N 40°40' W 074°01'2 4.3
2018-Jun-17 01:30N 40°42' W 074°00'1 2.4
2018-Jun-17 00:57N 40°41' W 074°01'2 4.3
2018-Jun-17 00:28N 40°39' W 074°02'3 6.2
2018-Jun-17 00:00N 40°42' W 074°00'3 4.9
2018-Jun-16 23:24N 40°39' W 074°02'4 6.7
2018-Jun-16 22:52N 40°42' W 074°00'0 0.8
2018-Jun-16 22:27N 40°42' W 073°60'3 7.3
2018-Jun-16 21:59N 40°39' W 074°02'2 4.0
2018-Jun-16 21:31N 40°41' W 074°01'1 1.1
2018-Jun-16 21:00N 40°41' W 074°01'1 1.1
2018-Jun-16 20:29N 40°41' W 074°01'1 2.3
2018-Jun-16 20:00N 40°40' W 074°01'2 4.0
2018-Jun-16 19:26N 40°42' W 074°00'0 0.9
2018-Jun-16 19:00N 40°42' W 074°00'3 4.5
2018-Jun-16 18:21N 40°39' W 074°02'4 7.2
2018-Jun-16 17:52N 40°42' W 074°00'0 0.8
2018-Jun-16 17:22N 40°42' W 074°00'3 7.6
2018-Jun-16 16:56N 40°39' W 074°02'2 5.0
2018-Jun-16 16:30N 40°41' W 074°01'1 1.2
2018-Jun-16 16:01N 40°41' W 074°01'1 1.2
2018-Jun-16 15:30N 40°41' W 074°01'1 1.9
2018-Jun-16 15:00N 40°40' W 074°01'2 4.5
2018-Jun-16 14:29N 40°42' W 074°00'0 0.7
2018-Jun-16 13:59N 40°42' W 073°60'4 5.5
2018-Jun-16 13:20N 40°39' W 074°02'3 8.6
2018-Jun-16 12:59N 40°42' W 074°00'1 1.2
2018-Jun-16 12:30N 40°42' W 073°60'4 5.2
2018-Jun-16 11:50N 40°39' W 074°02'3 9.8
2018-Jun-16 11:30N 40°42' W 074°00'0 0.4
2018-Jun-16 11:00N 40°42' W 074°00'1 1.6
2018-Jun-16 10:31N 40°41' W 074°01'2 0.1
2018-Jun-14 12:50N 40°44' W 074°01'0 0.0
2018-Jun-12 14:37N 40°44' W 074°01'212.7
2018-Jun-12 14:30N 40°42' W 074°00'2 2.9
2018-Jun-12 13:54N 40°44' W 074°01'1 1.3
2018-Jun-12 12:57N 40°45' W 074°01'2 0.1
2018-Jun-12 00:11N 40°43' W 074°01'2 5.2
2018-Jun-11 23:50N 40°42' W 073°59'1 0.3
2018-Jun-11 20:17N 40°42' W 074°01'1 0.2
2018-Jun-11 13:30N 40°43' W 074°02'1 0.3
2018-Jun-11 10:13N 40°42' W 074°00'2 0.2
2018-Jun-11 01:52N 40°44' W 074°01'2 1.8
2018-Jun-11 00:32N 40°43' W 073°58'120.4
2018-Jun-11 00:29N 40°42' W 073°59'1 1.7
2018-Jun-11 00:00N 40°42' W 074°00'2 1.4
2018-Jun-10 22:43N 40°43' W 073°58'1 3.2
2018-Jun-10 22:24N 40°42' W 073°59'1 0.8
2018-Jun-10 21:15N 40°43' W 073°58'1 2.9
2018-Jun-10 20:56N 40°42' W 073°59'1 0.7
2018-Jun-10 19:45N 40°43' W 073°58'2 6.3
2018-Jun-10 19:30N 40°42' W 074°00'2 1.4
2018-Jun-10 18:17N 40°43' W 073°58'1 3.7
2018-Jun-10 18:01N 40°42' W 073°59'0 0.3
2018-Jun-10 16:50N 40°43' W 073°59'0 0.6
2018-Jun-10 16:31N 40°43' W 073°59'0 0.1
2018-Jun-10 15:21N 40°42' W 073°59'0 1.2
2018-Jun-10 15:00N 40°42' W 073°59'0 0.2
2018-Jun-10 13:51N 40°42' W 073°59'0 0.7
2018-Jun-10 13:30N 40°43' W 073°59'1 0.5
2018-Jun-10 12:23N 40°43' W 073°58'1 2.4
2018-Jun-10 12:00N 40°42' W 073°59'1 0.8
2018-Jun-10 10:52N 40°43' W 073°58'2 5.1
2018-Jun-10 10:31N 40°42' W 074°00'3 0.3
2018-Jun-10 01:57N 40°45' W 074°01'3 2.0
2018-Jun-10 00:34N 40°42' W 073°59'1 1.4
2018-Jun-09 23:55N 40°42' W 074°00'2 1.3
2018-Jun-09 22:42N 40°43' W 073°58'2 7.0
2018-Jun-09 22:28N 40°42' W 074°00'2 1.3
2018-Jun-09 21:13N 40°43' W 073°58'2 7.8
2018-Jun-09 21:00N 40°42' W 074°00'2 1.4
2018-Jun-09 19:46N 40°43' W 073°58'1 2.2
2018-Jun-09 19:30N 40°43' W 073°59'0 0.1
2018-Jun-09 18:20N 40°43' W 073°58'0 1.2
2018-Jun-09 18:00N 40°43' W 073°59'1 0.5
2018-Jun-09 16:52N 40°43' W 073°58'0 0.1
2018-Jun-09 15:01N 40°43' W 073°58'0 0.3
2018-Jun-09 13:53N 40°43' W 073°58'0 0.0
2018-Jun-09 12:21N 40°43' W 073°58'0 1.4
2018-Jun-09 12:01N 40°43' W 073°59'1 0.5
2018-Jun-09 10:53N 40°43' W 073°58'2 6.7
2018-Jun-09 10:31N 40°43' W 074°02'3 0.2
2018-Jun-08 23:58N 40°46' W 074°00'1 1.5
2018-Jun-08 23:26N 40°45' W 074°01'1 1.0
2018-Jun-08 22:44N 40°46' W 074°00'1 2.5
2018-Jun-08 22:27N 40°45' W 074°01'  
Track history (hours):
 
Tides and Currents Weather Stations Pressure Air Temp Water Temp Dewpoint Dewpoint Depression Visibility Wind Speed Wind Dir Waves Ship Positions

Fiorello Laguardia

Owner: PORT IMPERIAL FERRY, WEEHAWKEN, NJ. More information available from US FCC via Universal Licensing System and Coast Guard Vessel Documentation Center.

Last reported at 2018-Jun-18 22:18 UTC. Time now 2018-Jun-19 08:26 UTC.
Position N 40°45' W 074°01'.

Length 26 m; draft 2 m.

Type: Passenger vessel. MMSI: 367434210.

Date/timePositionNaut miles runAvg speedWind from/ knotsBaromVisibWave heightAir tempDewpointWater temp
2018-Jun-18 22:18N 40°45' W 074°01'1 4.5
2018-Jun-18 22:01N 40°44' W 074°01'1 1.7
2018-Jun-18 21:30N 40°43' W 074°01'1 0.1
2018-Jun-18 12:56N 40°44' W 074°01'0 0.0
2018-Jun-18 02:32N 40°44' W 074°01'124.4
2018-Jun-18 02:31N 40°43' W 074°01'3 5.6
2018-Jun-18 02:00N 40°40' W 074°01'2 3.2
2018-Jun-18 01:20N 40°42' W 074°00'1 3.9
2018-Jun-18 00:59N 40°41' W 074°01'2 3.2
2018-Jun-18 00:23N 40°39' W 074°02'3 7.2
2018-Jun-18 00:00N 40°42' W 074°00'3 4.8
2018-Jun-17 23:23N 40°39' W 074°02'3 7.3
2018-Jun-17 22:55N 40°42' W 074°00'0 0.6
2018-Jun-17 22:30N 40°42' W 074°00'3 4.4
2018-Jun-17 21:42N 40°39' W 074°02'211.1
2018-Jun-17 21:31N 40°41' W 074°01'1 1.1
2018-Jun-17 21:00N 40°41' W 074°01'1 1.0
2018-Jun-17 20:28N 40°41' W 074°01'0 0.2
2018-Jun-17 19:51N 40°41' W 074°01'1 2.5
2018-Jun-17 19:26N 40°42' W 074°00'1 1.1
2018-Jun-17 18:55N 40°41' W 074°01'1 1.7
2018-Jun-17 18:20N 40°40' W 074°01'2 2.9
2018-Jun-17 17:46N 40°42' W 074°00'0 0.5
2018-Jun-17 17:24N 40°42' W 074°00'1 1.5
2018-Jun-17 16:37N 40°41' W 074°01'0 3.7
2018-Jun-17 16:30N 40°41' W 074°01'1 1.0
2018-Jun-17 15:58N 40°42' W 074°01'0 0.4
2018-Jun-17 14:48N 40°41' W 074°01'1 2.4
2018-Jun-17 14:26N 40°42' W 074°00'0 0.6
2018-Jun-17 13:59N 40°42' W 074°00'3 4.2
2018-Jun-17 13:18N 40°39' W 074°02'3 9.1
2018-Jun-17 12:57N 40°42' W 073°60'1 1.0
2018-Jun-17 12:23N 40°42' W 074°00'1 0.9
2018-Jun-17 11:41N 40°41' W 074°01'1 3.6
2018-Jun-17 11:19N 40°42' W 074°00'1 1.9
2018-Jun-17 11:01N 40°42' W 074°00'2 3.5
2018-Jun-17 10:24N 40°40' W 074°01'4 0.5
2018-Jun-17 02:34N 40°44' W 074°01'125.9
2018-Jun-17 02:30N 40°42' W 074°02'2 4.6
2018-Jun-17 02:00N 40°40' W 074°01'2 4.3
2018-Jun-17 01:30N 40°42' W 074°00'1 2.4
2018-Jun-17 00:57N 40°41' W 074°01'2 4.3
2018-Jun-17 00:28N 40°39' W 074°02'3 6.2
2018-Jun-17 00:00N 40°42' W 074°00'3 4.9
2018-Jun-16 23:24N 40°39' W 074°02'4 6.7
2018-Jun-16 22:52N 40°42' W 074°00'0 0.8
2018-Jun-16 22:27N 40°42' W 073°60'3 7.3
2018-Jun-16 21:59N 40°39' W 074°02'2 4.0
2018-Jun-16 21:31N 40°41' W 074°01'1 1.1
2018-Jun-16 21:00N 40°41' W 074°01'1 1.1
2018-Jun-16 20:29N 40°41' W 074°01'1 2.3
2018-Jun-16 20:00N 40°40' W 074°01'2 4.0
2018-Jun-16 19:26N 40°42' W 074°00'0 0.9
2018-Jun-16 19:00N 40°42' W 074°00'3 4.5
2018-Jun-16 18:21N 40°39' W 074°02'4 7.2
2018-Jun-16 17:52N 40°42' W 074°00'0 0.8
2018-Jun-16 17:22N 40°42' W 074°00'3 7.6
2018-Jun-16 16:56N 40°39' W 074°02'2 5.0
2018-Jun-16 16:30N 40°41' W 074°01'1 1.2
2018-Jun-16 16:01N 40°41' W 074°01'1 1.2
2018-Jun-16 15:30N 40°41' W 074°01'1 1.9
2018-Jun-16 15:00N 40°40' W 074°01'2 4.5
2018-Jun-16 14:29N 40°42' W 074°00'0 0.7
2018-Jun-16 13:59N 40°42' W 073°60'4 5.5
2018-Jun-16 13:20N 40°39' W 074°02'3 8.6
2018-Jun-16 12:59N 40°42' W 074°00'1 1.2
2018-Jun-16 12:30N 40°42' W 073°60'4 5.2
2018-Jun-16 11:50N 40°39' W 074°02'3 9.8
2018-Jun-16 11:30N 40°42' W 074°00'0 0.4
2018-Jun-16 11:00N 40°42' W 074°00'1 1.6
2018-Jun-16 10:31N 40°41' W 074°01'2 0.1
2018-Jun-14 12:50N 40°44' W 074°01'0 0.0
2018-Jun-12 14:37N 40°44' W 074°01'212.7
2018-Jun-12 14:30N 40°42' W 074°00'2 2.9
2018-Jun-12 13:54N 40°44' W 074°01'1 1.3
2018-Jun-12 12:57N 40°45' W 074°01'2 0.1
2018-Jun-12 00:11N 40°43' W 074°01'2 5.2
2018-Jun-11 23:50N 40°42' W 073°59'1 0.3
2018-Jun-11 20:17N 40°42' W 074°01'1 0.2
2018-Jun-11 13:30N 40°43' W 074°02'1 0.3
2018-Jun-11 10:13N 40°42' W 074°00'2 0.2
2018-Jun-11 01:52N 40°44' W 074°01'2 1.8
2018-Jun-11 00:32N 40°43' W 073°58'120.4
2018-Jun-11 00:29N 40°42' W 073°59'1 1.7
2018-Jun-11 00:00N 40°42' W 074°00'2 1.4
2018-Jun-10 22:43N 40°43' W 073°58'1 3.2
2018-Jun-10 22:24N 40°42' W 073°59'1 0.8
2018-Jun-10 21:15N 40°43' W 073°58'1 2.9
2018-Jun-10 20:56N 40°42' W 073°59'1 0.7
2018-Jun-10 19:45N 40°43' W 073°58'2 6.3
2018-Jun-10 19:30N 40°42' W 074°00'2 1.4
2018-Jun-10 18:17N 40°43' W 073°58'1 3.7
2018-Jun-10 18:01N 40°42' W 073°59'0 0.3
2018-Jun-10 16:50N 40°43' W 073°59'0 0.6
2018-Jun-10 16:31N 40°43' W 073°59'0 0.1
2018-Jun-10 15:21N 40°42' W 073°59'0 1.2
2018-Jun-10 15:00N 40°42' W 073°59'0 0.2
2018-Jun-10 13:51N 40°42' W 073°59'0 0.7
2018-Jun-10 13:30N 40°43' W 073°59'1 0.5
2018-Jun-10 12:23N 40°43' W 073°58'1 2.4
2018-Jun-10 12:00N 40°42' W 073°59'1 0.8
2018-Jun-10 10:52N 40°43' W 073°58'2 5.1
2018-Jun-10 10:31N 40°42' W 074°00'3 0.3
2018-Jun-10 01:57N 40°45' W 074°01'3 2.0
2018-Jun-10 00:34N 40°42' W 073°59'1 1.4
2018-Jun-09 23:55N 40°42' W 074°00'2 1.3
2018-Jun-09 22:42N 40°43' W 073°58'2 7.0
2018-Jun-09 22:28N 40°42' W 074°00'2 1.3
2018-Jun-09 21:13N 40°43' W 073°58'2 7.8
2018-Jun-09 21:00N 40°42' W 074°00'2 1.4
2018-Jun-09 19:46N 40°43' W 073°58'1 2.2
2018-Jun-09 19:30N 40°43' W 073°59'0 0.1
2018-Jun-09 18:20N 40°43' W 073°58'0 1.2
2018-Jun-09 18:00N 40°43' W 073°59'1 0.5
2018-Jun-09 16:52N 40°43' W 073°58'0 0.1
2018-Jun-09 15:01N 40°43' W 073°58'0 0.3
2018-Jun-09 13:53N 40°43' W 073°58'0 0.0
2018-Jun-09 12:21N 40°43' W 073°58'0 1.4
2018-Jun-09 12:01N 40°43' W 073°59'1 0.5
2018-Jun-09 10:53N 40°43' W 073°58'2 6.7
2018-Jun-09 10:31N 40°43' W 074°02'3 0.2
2018-Jun-08 23:58N 40°46' W 074°00'1 1.5
2018-Jun-08 23:26N 40°45' W 074°01'1 1.0
2018-Jun-08 22:44N 40°46' W 074°00'1 2.5
2018-Jun-08 22:27N 40°45' W 074°01'  

Dump ship's entire track history